createdAt,value
2023-02-11T00:01:41.235Z,64.54
2023-02-11T00:04:10.350Z,64.54
2023-02-11T00:06:39.079Z,64.60
2023-02-11T00:09:07.966Z,64.48
2023-02-11T00:11:36.949Z,64.66
2023-02-11T00:14:08.615Z,64.48
2023-02-11T00:16:38.224Z,64.60
2023-02-11T00:19:07.666Z,64.75
2023-02-11T00:21:36.322Z,64.81
2023-02-11T00:24:05.651Z,65.07
2023-02-11T00:26:36.218Z,64.85
2023-02-11T00:29:07.454Z,64.63
2023-02-11T00:31:36.997Z,64.79
2023-02-11T00:34:07.344Z,64.92
2023-02-11T00:36:36.885Z,64.90
2023-02-11T00:39:06.057Z,64.88
2023-02-11T00:41:36.854Z,65.06
2023-02-11T00:44:06.098Z,64.93
2023-02-11T00:46:37.363Z,65.22
2023-02-11T00:49:06.215Z,65.06
2023-02-11T00:51:35.182Z,64.78
2023-02-11T00:54:06.265Z,65.13
2023-02-11T00:56:37.930Z,64.97
2023-02-11T00:59:06.946Z,65.18
2023-02-11T01:01:35.766Z,65.13
2023-02-11T01:04:04.745Z,65.15
2023-02-11T01:06:33.736Z,64.90
2023-02-11T01:09:02.308Z,65.02
2023-02-11T01:11:31.264Z,65.03
2023-02-11T01:14:00.594Z,64.91
2023-02-11T01:16:32.124Z,64.88
2023-02-11T01:19:02.042Z,64.94
2023-02-11T01:21:30.651Z,65.03
2023-02-11T01:23:59.311Z,64.98
2023-02-11T01:26:31.895Z,65.01
2023-02-11T01:29:01.417Z,64.91
2023-02-11T01:31:31.976Z,65.12
2023-02-11T01:34:02.894Z,65.21
2023-02-11T01:36:31.665Z,65.23
2023-02-11T01:39:02.162Z,65.16
2023-02-11T01:41:31.138Z,65.10
2023-02-11T01:44:20.152Z,65.03
2023-02-11T01:46:51.075Z,65.11
2023-02-11T01:49:38.460Z,64.99
2023-02-11T01:52:12.774Z,65.11
2023-02-11T01:55:08.414Z,65.23
2023-02-11T01:57:40.573Z,65.33
2023-02-11T02:00:20.640Z,65.22
2023-02-11T02:03:08.450Z,65.15
2023-02-11T02:05:49.553Z,65.41
2023-02-11T02:08:51.971Z,65.20
2023-02-11T02:11:20.700Z,65.32
2023-02-11T02:13:49.701Z,65.30
2023-02-11T02:16:22.427Z,65.48
2023-02-11T02:19:06.567Z,65.24
2023-02-11T02:21:41.479Z,65.37
2023-02-11T02:24:36.594Z,65.39
2023-02-11T02:27:41.167Z,65.29
2023-02-11T02:30:33.388Z,65.45
2023-02-11T02:33:25.719Z,65.45
2023-02-11T02:35:58.074Z,65.43
2023-02-11T02:38:52.986Z,65.62
2023-02-11T02:41:27.569Z,65.34
2023-02-11T02:43:56.827Z,65.50
2023-02-11T02:46:29.246Z,65.57
2023-02-11T02:48:59.206Z,65.37
2023-02-11T02:51:46.375Z,65.51
2023-02-11T02:54:42.970Z,65.57
2023-02-11T02:57:20.816Z,65.55
2023-02-11T03:00:15.941Z,65.57
2023-02-11T03:02:48.199Z,65.72
2023-02-11T03:05:26.683Z,65.76
2023-02-11T03:08:08.711Z,65.80
2023-02-11T03:10:46.160Z,65.84
2023-02-11T03:13:18.441Z,65.73
2023-02-11T03:15:51.865Z,65.79
2023-02-11T03:18:24.970Z,65.90
2023-02-11T03:20:56.078Z,65.75
2023-02-11T03:23:42.881Z,65.72
2023-02-11T03:26:23.656Z,65.72
2023-02-11T03:29:10.493Z,65.64
2023-02-11T03:32:16.603Z,65.78
2023-02-11T03:34:54.342Z,65.70
2023-02-11T03:37:45.360Z,65.79
2023-02-11T03:40:20.170Z,65.70
2023-02-11T03:42:59.438Z,65.68
2023-02-11T03:45:29.240Z,65.68
2023-02-11T03:48:05.411Z,65.67
2023-02-11T03:50:37.837Z,65.77
2023-02-11T03:53:08.289Z,65.79
2023-02-11T03:55:40.220Z,65.81
2023-02-11T03:58:09.468Z,65.98
2023-02-11T04:00:41.292Z,65.90
2023-02-11T04:03:11.798Z,65.96
2023-02-11T04:05:40.955Z,65.66
2023-02-11T04:08:09.858Z,65.75
2023-02-11T04:10:38.965Z,65.74
2023-02-11T04:13:07.958Z,65.69
2023-02-11T04:15:36.666Z,65.79
2023-02-11T04:18:05.450Z,65.97
2023-02-11T04:20:34.645Z,65.98
2023-02-11T04:23:03.561Z,65.68
2023-02-11T04:25:32.519Z,65.77
2023-02-11T04:28:01.279Z,65.92
2023-02-11T04:30:30.355Z,65.77
2023-02-11T04:33:00.053Z,65.98
2023-02-11T04:35:28.883Z,65.87
2023-02-11T04:37:57.865Z,65.91
2023-02-11T04:40:26.803Z,66.07
2023-02-11T04:42:55.749Z,65.93
2023-02-11T04:45:24.762Z,65.88
2023-02-11T04:47:53.844Z,65.93
2023-02-11T04:50:23.041Z,65.97
2023-02-11T04:52:52.101Z,65.86
2023-02-11T04:55:21.137Z,66.25
2023-02-11T04:57:49.737Z,66.28
2023-02-11T05:00:18.384Z,65.98
2023-02-11T05:02:47.178Z,66.12
2023-02-11T05:05:15.946Z,66.02
2023-02-11T05:07:44.960Z,66.30
2023-02-11T05:10:14.194Z,66.09
2023-02-11T05:12:43.514Z,66.05
2023-02-11T05:15:12.160Z,66.13
2023-02-11T05:17:41.228Z,66.29
2023-02-11T05:20:11.071Z,66.20
2023-02-11T05:22:39.687Z,66.30
2023-02-11T05:25:09.356Z,66.26
2023-02-11T05:27:38.706Z,66.13
2023-02-11T05:30:07.936Z,66.10
2023-02-11T05:32:36.800Z,66.32
2023-02-11T05:35:06.207Z,66.27
2023-02-11T05:37:35.716Z,66.14
2023-02-11T05:40:05.340Z,66.21
2023-02-11T05:42:34.514Z,66.42
2023-02-11T05:45:04.099Z,66.36
2023-02-11T05:47:33.688Z,66.29
2023-02-11T05:50:02.384Z,66.18
2023-02-11T05:52:31.625Z,66.38
2023-02-11T05:55:00.635Z,66.41
2023-02-11T05:57:29.709Z,66.46
2023-02-11T05:59:58.769Z,66.31
2023-02-11T06:02:27.871Z,66.26
2023-02-11T06:04:56.902Z,66.22
2023-02-11T06:07:25.847Z,66.27
2023-02-11T06:09:54.756Z,66.29
2023-02-11T06:12:23.807Z,66.35
2023-02-11T06:14:53.072Z,66.38
2023-02-11T06:17:21.743Z,66.39
2023-02-11T06:19:50.526Z,66.67
2023-02-11T06:22:19.543Z,66.48
2023-02-11T06:25:00.919Z,66.46
2023-02-11T06:27:31.184Z,66.82
2023-02-11T06:30:00.012Z,66.53
2023-02-11T06:32:43.207Z,66.67
2023-02-11T06:35:14.733Z,66.76
2023-02-11T06:37:43.705Z,66.61
2023-02-11T06:40:12.971Z,66.67
2023-02-11T06:42:43.389Z,66.56
2023-02-11T06:45:13.627Z,66.78
2023-02-11T06:47:42.540Z,66.71
2023-02-11T06:50:14.289Z,66.61
2023-02-11T06:52:43.464Z,66.78
2023-02-11T06:55:12.169Z,66.75
2023-02-11T06:57:41.268Z,67.00
2023-02-11T07:00:10.680Z,66.84
2023-02-11T07:02:39.377Z,66.99
2023-02-11T07:05:09.274Z,67.06
2023-02-11T07:07:38.378Z,67.22
2023-02-11T07:10:07.246Z,67.30
2023-02-11T07:12:36.276Z,67.39
2023-02-11T07:15:05.754Z,67.61
2023-02-11T07:17:35.970Z,67.93
2023-02-11T07:20:05.624Z,67.85
2023-02-11T07:22:34.947Z,67.94
2023-02-11T07:25:04.668Z,67.88
2023-02-11T07:27:34.388Z,68.02
2023-02-11T07:30:06.860Z,68.32
2023-02-11T07:32:36.748Z,68.23
2023-02-11T07:35:05.970Z,68.40
2023-02-11T07:37:35.919Z,68.41
2023-02-11T07:40:08.406Z,68.66
2023-02-11T07:42:37.500Z,68.67
2023-02-11T07:45:07.522Z,68.65
2023-02-11T07:47:38.929Z,68.63
2023-02-11T07:50:09.108Z,68.75
2023-02-11T07:52:37.878Z,68.81
2023-02-11T07:55:06.760Z,69.16
2023-02-11T07:57:36.803Z,68.92
2023-02-11T08:00:06.568Z,69.08
2023-02-11T08:02:39.965Z,69.16
2023-02-11T08:05:09.315Z,68.93
2023-02-11T08:07:38.150Z,69.09
2023-02-11T08:10:07.697Z,69.08
2023-02-11T08:12:36.547Z,68.99
2023-02-11T08:15:05.963Z,68.89
2023-02-11T08:17:37.023Z,68.95
2023-02-11T08:20:07.076Z,69.01
2023-02-11T08:22:36.151Z,68.82
2023-02-11T08:25:05.554Z,68.89
2023-02-11T08:27:34.826Z,68.81
2023-02-11T08:30:04.198Z,68.76
2023-02-11T08:32:57.680Z,68.81
2023-02-11T08:35:47.969Z,68.76
2023-02-11T08:38:16.808Z,68.92
2023-02-11T08:40:45.746Z,68.87
2023-02-11T08:43:14.809Z,68.85
2023-02-11T08:45:43.771Z,68.96
2023-02-11T08:48:12.483Z,68.84
2023-02-11T08:50:42.919Z,68.96
2023-02-11T08:53:11.971Z,68.88
2023-02-11T08:55:40.654Z,68.91
2023-02-11T08:58:10.048Z,69.07
2023-02-11T09:00:38.856Z,69.02
2023-02-11T09:03:08.754Z,69.11
2023-02-11T09:05:41.354Z,69.18
2023-02-11T09:08:10.911Z,69.23
2023-02-11T09:10:40.083Z,69.21
2023-02-11T09:13:09.691Z,69.29
2023-02-11T09:15:38.409Z,69.16
2023-02-11T09:18:07.853Z,69.26
2023-02-11T09:20:36.473Z,69.42
2023-02-11T09:23:05.251Z,69.51
2023-02-11T09:25:34.058Z,69.60
2023-02-11T09:28:02.698Z,69.67
2023-02-11T09:30:31.545Z,69.97
2023-02-11T09:33:00.258Z,69.99
2023-02-11T09:35:29.043Z,69.90
2023-02-11T09:37:57.859Z,69.94
2023-02-11T09:40:26.947Z,69.95
2023-02-11T09:43:12.167Z,70.02
2023-02-11T09:45:41.239Z,69.77
2023-02-11T09:48:20.665Z,69.93
2023-02-11T09:51:04.037Z,70.24
2023-02-11T09:53:42.107Z,70.30
2023-02-11T09:56:13.954Z,70.14
2023-02-11T09:58:45.307Z,70.43
2023-02-11T10:01:46.438Z,70.44
2023-02-11T10:04:35.814Z,70.28
2023-02-11T10:07:34.728Z,70.21
2023-02-11T10:10:40.942Z,70.29
2023-02-11T10:13:32.797Z,70.31
2023-02-11T10:16:22.963Z,70.46
2023-02-11T10:19:14.487Z,70.38
2023-02-11T10:21:57.122Z,70.34
2023-02-11T10:24:30.678Z,70.39
2023-02-11T10:27:02.043Z,70.38
2023-02-11T10:29:41.080Z,70.45
2023-02-11T10:32:45.000Z,70.29
2023-02-11T10:35:21.964Z,70.35
2023-02-11T10:37:51.266Z,70.21
2023-02-11T10:40:26.697Z,70.13
2023-02-11T10:42:59.929Z,70.21
2023-02-11T10:45:49.286Z,70.10
2023-02-11T10:48:39.968Z,70.18
2023-02-11T10:51:18.720Z,70.13
2023-02-11T10:53:50.538Z,70.17
2023-02-11T10:56:27.141Z,70.18
2023-02-11T10:59:21.479Z,70.41
2023-02-11T11:01:56.452Z,70.33
2023-02-11T11:04:38.093Z,70.41
2023-02-11T11:07:20.668Z,70.28
2023-02-11T11:09:57.102Z,70.28
2023-02-11T11:12:47.829Z,70.35
2023-02-11T11:15:19.159Z,70.31
2023-02-11T11:18:20.865Z,70.30
2023-02-11T11:21:02.550Z,70.43
2023-02-11T11:23:32.021Z,70.38
2023-02-11T11:26:15.310Z,70.34
2023-02-11T11:28:47.644Z,70.35
2023-02-11T11:31:25.885Z,70.45
2023-02-11T11:34:00.963Z,70.38
2023-02-11T11:36:36.732Z,70.28
2023-02-11T11:39:25.566Z,70.40
2023-02-11T11:42:06.995Z,70.67
2023-02-11T11:44:37.410Z,70.56
2023-02-11T11:47:09.259Z,70.67
2023-02-11T11:49:42.817Z,70.57
2023-02-11T11:52:42.466Z,70.82
2023-02-11T11:55:23.643Z,70.72
2023-02-11T11:57:52.613Z,70.73
2023-02-11T12:00:28.906Z,70.80
2023-02-11T12:03:01.269Z,70.79
2023-02-11T12:05:44.782Z,70.92
2023-02-11T12:08:43.556Z,71.05
2023-02-11T12:11:28.374Z,71.16
2023-02-11T12:14:39.286Z,71.14
2023-02-11T12:17:23.492Z,71.24
2023-02-11T12:19:58.090Z,71.41
2023-02-11T12:22:36.011Z,71.16
2023-02-11T12:25:42.041Z,71.08
2023-02-11T12:28:29.845Z,71.35
2023-02-11T12:31:38.744Z,71.29
2023-02-11T12:34:35.759Z,71.22
2023-02-11T12:37:35.213Z,71.28
2023-02-11T12:40:47.542Z,71.36
2023-02-11T12:43:24.568Z,71.40
2023-02-11T12:46:04.169Z,71.57
2023-02-11T12:48:48.575Z,71.39
2023-02-11T12:52:05.249Z,71.32
2023-02-11T12:54:42.852Z,71.32
2023-02-11T12:57:20.153Z,71.46
2023-02-11T12:59:56.872Z,71.57
2023-02-11T13:03:00.449Z,71.57
2023-02-11T13:05:52.713Z,71.51
2023-02-11T13:08:34.384Z,71.47
2023-02-11T13:11:08.759Z,71.49
2023-02-11T13:13:56.968Z,71.43
2023-02-11T13:16:28.505Z,71.49
2023-02-11T13:19:15.672Z,71.68
2023-02-11T13:22:17.431Z,71.69
2023-02-11T13:25:03.117Z,71.74
2023-02-11T13:27:43.996Z,71.68
2023-02-11T13:30:35.678Z,71.51
2023-02-11T13:33:07.794Z,71.67
2023-02-11T13:35:38.562Z,71.73
2023-02-11T13:38:23.379Z,71.70
2023-02-11T13:41:18.608Z,71.76
2023-02-11T13:43:59.276Z,71.65
2023-02-11T13:46:30.946Z,71.88
2023-02-11T13:48:59.855Z,71.77
2023-02-11T13:51:39.768Z,71.98
2023-02-11T13:54:19.125Z,71.99
2023-02-11T13:57:20.248Z,72.21
2023-02-11T14:00:04.007Z,72.30
2023-02-11T14:02:56.641Z,72.07
2023-02-11T14:05:52.168Z,72.05
2023-02-11T14:08:42.137Z,72.10
2023-02-11T14:11:33.600Z,72.19
2023-02-11T14:14:18.631Z,72.37
2023-02-11T14:17:20.482Z,72.40
2023-02-11T14:19:51.841Z,72.49
2023-02-11T14:22:26.846Z,72.43
2023-02-11T14:24:57.599Z,72.47
2023-02-11T14:27:47.186Z,72.49
2023-02-11T14:30:35.286Z,72.54
2023-02-11T14:33:14.707Z,72.57
2023-02-11T14:35:52.606Z,72.55
2023-02-11T14:38:39.395Z,72.70
2023-02-11T14:41:32.133Z,72.66
2023-02-11T14:44:20.002Z,72.77
2023-02-11T14:46:52.944Z,72.98
2023-02-11T14:49:29.122Z,72.84
2023-02-11T14:52:08.844Z,72.89
2023-02-11T14:54:38.028Z,72.76
2023-02-11T14:57:17.968Z,72.83
2023-02-11T15:00:03.077Z,72.71
2023-02-11T15:02:38.788Z,72.94
2023-02-11T15:05:16.358Z,72.94
2023-02-11T15:07:57.427Z,72.89
2023-02-11T15:10:37.285Z,72.95
2023-02-11T15:13:06.348Z,72.90
2023-02-11T15:15:39.405Z,72.99
2023-02-11T15:18:10.044Z,73.23
2023-02-11T15:20:41.434Z,73.22
2023-02-11T15:23:21.290Z,73.24
2023-02-11T15:25:56.666Z,73.12
2023-02-11T15:28:32.161Z,73.37
2023-02-11T15:31:16.546Z,73.16
2023-02-11T15:33:46.661Z,73.21
2023-02-11T15:36:17.334Z,73.14
2023-02-11T15:38:46.080Z,73.14
2023-02-11T15:41:45.380Z,73.40
2023-02-11T15:44:34.918Z,73.52
2023-02-11T15:47:10.981Z,73.48
2023-02-11T15:49:45.436Z,73.47
2023-02-11T15:52:22.512Z,73.38
2023-02-11T15:54:54.120Z,73.38
2023-02-11T15:57:24.910Z,73.44
2023-02-11T15:59:55.608Z,73.51
2023-02-11T16:02:37.283Z,73.39
2023-02-11T16:05:09.286Z,73.51
2023-02-11T16:07:53.112Z,73.68
2023-02-11T16:10:35.726Z,73.62
2023-02-11T16:13:20.584Z,73.66
2023-02-11T16:16:05.893Z,73.66
2023-02-11T16:18:40.487Z,73.87
2023-02-11T16:21:17.181Z,73.91
2023-02-11T16:23:53.757Z,73.84
2023-02-11T16:26:27.957Z,73.91
2023-02-11T16:29:11.820Z,73.72
2023-02-11T16:31:43.542Z,73.84
2023-02-11T16:34:26.218Z,73.76
2023-02-11T16:36:55.426Z,73.88
2023-02-11T16:39:24.605Z,73.93
2023-02-11T16:41:53.646Z,73.97
2023-02-11T16:44:22.639Z,74.18
2023-02-11T16:46:53.108Z,74.05
2023-02-11T16:49:28.412Z,74.03
2023-02-11T16:52:03.374Z,74.06
2023-02-11T16:54:32.299Z,74.12
2023-02-11T16:57:02.344Z,74.31
2023-02-11T16:59:30.912Z,74.13
2023-02-11T17:01:59.633Z,74.19
2023-02-11T17:04:31.747Z,74.17
2023-02-11T17:07:01.060Z,74.27
2023-02-11T17:09:31.194Z,74.30
2023-02-11T17:12:03.849Z,74.42
2023-02-11T17:14:32.918Z,74.35
2023-02-11T17:17:02.130Z,74.56
2023-02-11T17:19:31.427Z,74.58
2023-02-11T17:22:00.282Z,74.62
2023-02-11T17:24:29.350Z,74.64
2023-02-11T17:26:58.626Z,74.71
2023-02-11T17:29:27.596Z,74.81
2023-02-11T17:31:56.222Z,74.73
2023-02-11T17:34:25.911Z,74.73
2023-02-11T17:36:55.204Z,74.85
2023-02-11T17:39:24.458Z,74.71
2023-02-11T17:41:53.358Z,74.69
2023-02-11T17:44:22.019Z,74.72
2023-02-11T17:46:50.667Z,74.85
2023-02-11T17:49:20.737Z,74.80
2023-02-11T17:51:49.668Z,74.80
2023-02-11T17:54:21.947Z,74.93
2023-02-11T17:56:51.052Z,74.96
2023-02-11T17:59:20.089Z,74.98
2023-02-11T18:01:49.059Z,74.87
2023-02-11T18:04:28.121Z,75.06
2023-02-11T18:07:19.221Z,75.14
2023-02-11T18:10:04.328Z,75.22
2023-02-11T18:12:51.021Z,75.19
2023-02-11T18:15:41.048Z,75.39
2023-02-11T18:21:31.388Z,75.47
2023-02-11T18:24:21.160Z,75.52
2023-02-11T18:27:15.885Z,75.52
2023-02-11T18:30:01.999Z,75.40
2023-02-11T18:32:50.319Z,75.56
2023-02-11T18:35:36.927Z,75.47
2023-02-11T18:38:43.779Z,75.54
2023-02-11T18:41:38.958Z,75.74
2023-02-11T18:44:23.350Z,75.65
2023-02-11T18:47:25.422Z,75.70
2023-02-11T18:50:10.319Z,75.72
2023-02-11T18:52:40.280Z,75.59
2023-02-11T18:55:10.023Z,75.82
2023-02-11T18:57:38.740Z,75.82
2023-02-11T19:00:10.428Z,75.97
2023-02-11T19:02:39.300Z,75.91
2023-02-11T19:05:08.146Z,75.89
2023-02-11T19:07:37.424Z,75.86
2023-02-11T19:10:07.244Z,75.88
2023-02-11T19:12:36.135Z,75.89
2023-02-11T19:15:06.906Z,75.97
2023-02-11T19:17:35.953Z,75.95
2023-02-11T19:20:06.345Z,75.89
2023-02-11T19:22:35.704Z,75.76
2023-02-11T19:25:04.671Z,76.02
2023-02-11T19:27:33.645Z,75.96
2023-02-11T19:30:02.396Z,75.88
2023-02-11T19:32:31.724Z,75.99
2023-02-11T19:35:04.631Z,75.81
2023-02-11T19:37:33.665Z,75.99
2023-02-11T19:40:02.306Z,75.88
2023-02-11T19:42:31.100Z,75.99
2023-02-11T19:45:00.029Z,76.45
2023-02-11T19:47:28.598Z,76.15
2023-02-11T19:50:11.019Z,76.29
2023-02-11T19:52:46.527Z,76.35
2023-02-11T19:55:15.482Z,76.47
2023-02-11T19:57:44.327Z,76.36
2023-02-11T20:00:13.437Z,76.38
2023-02-11T20:02:43.826Z,76.28
2023-02-11T20:05:13.709Z,76.37
2023-02-11T20:07:42.434Z,76.37
2023-02-11T20:10:11.690Z,76.51
2023-02-11T20:12:40.447Z,76.57
2023-02-11T20:15:09.548Z,76.43
2023-02-11T20:17:38.222Z,76.42
2023-02-11T20:20:07.301Z,76.68
2023-02-11T20:22:36.192Z,76.59
2023-02-11T20:25:05.645Z,76.63
2023-02-11T20:27:34.547Z,76.77
2023-02-11T20:30:04.203Z,76.62
2023-02-11T20:32:38.768Z,76.52
2023-02-11T20:35:09.111Z,76.69
2023-02-11T20:37:39.876Z,76.68
2023-02-11T20:40:09.852Z,76.69
2023-02-11T20:42:38.409Z,76.60
2023-02-11T20:45:07.640Z,76.68
2023-02-11T20:47:38.462Z,76.80
2023-02-11T20:50:07.899Z,76.91
2023-02-11T20:52:37.209Z,76.97
2023-02-11T20:55:07.198Z,76.72
2023-02-11T20:57:35.870Z,77.02
2023-02-11T21:00:04.880Z,76.87
2023-02-11T21:02:33.953Z,76.66
2023-02-11T21:05:02.653Z,76.88
2023-02-11T21:07:31.841Z,76.76
2023-02-11T21:10:00.717Z,76.88
2023-02-11T21:12:29.584Z,76.91
2023-02-11T21:14:59.284Z,76.96
2023-02-11T21:17:31.583Z,76.99
2023-02-11T21:20:00.592Z,76.95
2023-02-11T21:22:29.936Z,76.92
2023-02-11T21:24:58.580Z,77.04
2023-02-11T21:27:32.573Z,77.31
2023-02-11T21:30:01.871Z,77.23
2023-02-11T21:32:30.941Z,77.24
2023-02-11T21:35:02.182Z,77.38
2023-02-11T21:37:31.640Z,77.23
2023-02-11T21:40:00.628Z,77.43
2023-02-11T21:42:30.107Z,77.29
2023-02-11T21:44:59.157Z,77.22
2023-02-11T21:47:28.244Z,77.27
2023-02-11T21:49:59.015Z,77.34
2023-02-11T21:52:27.886Z,77.27
2023-02-11T21:54:56.870Z,77.34
2023-02-11T21:57:25.705Z,77.34
2023-02-11T21:59:54.854Z,77.21
2023-02-11T22:02:24.006Z,77.43
2023-02-11T22:04:53.165Z,77.44
2023-02-11T22:07:23.020Z,77.47
2023-02-11T22:09:52.894Z,77.19
2023-02-11T22:12:22.755Z,77.41
2023-02-11T22:14:51.984Z,77.44
2023-02-11T22:17:20.790Z,77.42
2023-02-11T22:19:49.908Z,77.62
2023-02-11T22:22:20.052Z,77.44
2023-02-11T22:24:49.189Z,77.51
2023-02-11T22:27:20.204Z,77.45
2023-02-11T22:29:49.108Z,77.27
2023-02-11T22:32:18.466Z,77.45
2023-02-11T22:34:47.012Z,77.58
2023-02-11T22:37:15.758Z,77.60
2023-02-11T22:39:44.540Z,77.77
2023-02-11T22:42:13.182Z,77.84
2023-02-11T22:44:42.131Z,77.89
2023-02-11T22:47:10.933Z,77.70
2023-02-11T22:49:41.174Z,77.72
2023-02-11T22:52:09.979Z,77.88
2023-02-11T22:54:39.250Z,77.87
2023-02-11T22:57:07.786Z,77.91
2023-02-11T22:59:36.826Z,77.89
2023-02-11T23:02:05.850Z,77.78
2023-02-11T23:04:34.386Z,77.76
2023-02-11T23:07:03.252Z,77.75
2023-02-11T23:09:32.270Z,77.72
2023-02-11T23:12:00.830Z,77.71
2023-02-11T23:14:29.761Z,77.80
2023-02-11T23:16:59.036Z,78.00
2023-02-11T23:19:27.697Z,78.05
2023-02-11T23:21:56.573Z,78.00
2023-02-11T23:24:25.887Z,77.99
2023-02-11T23:26:54.772Z,78.26
2023-02-11T23:29:23.957Z,78.32
2023-02-11T23:31:52.998Z,78.73
2023-02-11T23:34:25.581Z,78.23
2023-02-11T23:36:54.900Z,78.35
2023-02-11T23:39:23.645Z,78.22
2023-02-11T23:41:59.591Z,78.49
2023-02-11T23:44:28.965Z,78.55
2023-02-11T23:46:57.680Z,78.56
2023-02-11T23:49:26.677Z,78.57
2023-02-11T23:51:55.670Z,78.65
2023-02-11T23:54:24.273Z,78.48
2023-02-11T23:56:53.399Z,78.64
2023-02-11T23:59:22.602Z,78.73
